Time;durP1;ratioP1;P1;durP2;ratioP2;P2;SDS_P1;SDS_P2;PMS_P1;PMS_P2;Temp;Humidity;BMP_temperature;BMP_pressure;BME280_temperature;BME280_humidity;BME280_pressure;Samples;Min_cycle;Max_cycle;Signal;HPM_P1;HPM_P2
2024/01/26 00:01:17;;;;;;;5.53;2.53;;;13.90;94.80;;;;;;4593679;19;20013;-73
2024/01/26 00:02:54;;;;;;;5.22;2.35;;;13.90;94.80;;;;;;4592145;19;20018;-73
2024/01/26 00:04:28;;;;;;;6.87;3.27;;;13.90;94.70;;;;;;4592531;19;19998;-72
2024/01/26 00:06:02;;;;;;;6.40;3.17;;;13.90;94.80;;;;;;4593218;19;19999;-72
2024/01/26 00:07:37;;;;;;;5.20;2.73;;;13.90;94.80;;;;;;4593587;19;20019;-72
2024/01/26 00:09:11;;;;;;;5.93;2.77;;;13.90;94.90;;;;;;4593484;19;20003;-73
2024/01/26 00:10:46;;;;;;;5.63;2.33;;;13.90;94.90;;;;;;4593422;19;20008;-73
2024/01/26 00:12:21;;;;;;;5.07;2.40;;;13.90;94.90;;;;;;4592610;19;20074;-73
2024/01/26 00:13:56;;;;;;;9.27;4.50;;;13.90;95.00;;;;;;4593408;19;19998;-73
2024/01/26 00:15:30;;;;;;;6.77;3.27;;;13.90;95.00;;;;;;4593612;19;20444;-73
2024/01/26 00:17:06;;;;;;;6.97;3.60;;;13.90;94.90;;;;;;4593605;19;20021;-73
2024/01/26 00:18:42;;;;;;;8.73;4.53;;;13.90;94.80;;;;;;4593578;19;20457;-73
2024/01/26 00:20:16;;;;;;;5.60;2.83;;;13.90;94.90;;;;;;4593258;19;20010;-73
2024/01/26 00:21:51;;;;;;;6.27;2.70;;;13.90;94.90;;;;;;4592452;19;20007;-73
2024/01/26 00:23:26;;;;;;;6.50;3.57;;;13.90;94.90;;;;;;4592094;19;20015;-72
2024/01/26 00:25:00;;;;;;;5.53;2.90;;;13.90;94.90;;;;;;4592009;19;20295;-73
2024/01/26 00:26:37;;;;;;;6.20;3.00;;;13.90;95.00;;;;;;4593226;19;20023;-73
2024/01/26 00:28:11;;;;;;;6.13;3.53;;;13.90;94.90;;;;;;4593079;19;20026;-73
2024/01/26 00:29:45;;;;;;;5.20;2.80;;;13.90;94.90;;;;;;4593041;19;20429;-73
2024/01/26 00:31:20;;;;;;;6.17;3.23;;;13.90;94.90;;;;;;4593113;19;20023;-73
2024/01/26 00:32:54;;;;;;;4.33;2.37;;;13.90;94.90;;;;;;4592035;19;20007;-73
2024/01/26 00:34:28;;;;;;;5.50;2.77;;;13.90;94.90;;;;;;4591652;19;20006;-73
2024/01/26 00:36:06;;;;;;;6.67;3.13;;;13.90;94.80;;;;;;4592667;19;20073;-73
2024/01/26 00:37:41;;;;;;;5.20;2.53;;;13.90;94.80;;;;;;4592902;19;20007;-72
2024/01/26 00:39:16;;;;;;;4.50;2.50;;;13.90;94.80;;;;;;4592928;19;20081;-73
2024/01/26 00:40:52;;;;;;;4.17;2.10;;;14.00;94.80;;;;;;4592956;19;20440;-73
2024/01/26 00:42:25;;;;;;;5.07;2.73;;;13.90;94.90;;;;;;4591621;19;20035;-73
2024/01/26 00:43:59;;;;;;;4.07;2.30;;;13.90;94.90;;;;;;4593052;19;20066;-72
2024/01/26 00:45:35;;;;;;;4.50;2.00;;;13.90;94.90;;;;;;4591498;19;20314;-73
2024/01/26 00:47:09;;;;;;;5.20;2.00;;;13.90;94.90;;;;;;4592695;19;20031;-72
2024/01/26 00:48:43;;;;;;;4.63;2.37;;;13.90;94.80;;;;;;4591627;19;20016;-73
2024/01/26 00:50:19;;;;;;;4.77;2.67;;;13.90;94.70;;;;;;4592351;19;20320;-73
2024/01/26 00:51:54;;;;;;;3.70;1.73;;;13.90;94.80;;;;;;4591119;19;20317;-73
2024/01/26 00:53:28;;;;;;;4.17;1.90;;;13.90;94.90;;;;;;4592253;19;20045;-72
2024/01/26 00:55:03;;;;;;;5.30;2.40;;;14.00;94.90;;;;;;4592590;19;20003;-73
2024/01/26 00:56:37;;;;;;;6.87;3.70;;;13.90;94.80;;;;;;4592803;19;20002;-73
2024/01/26 00:58:11;;;;;;;4.30;2.17;;;13.90;94.90;;;;;;4592781;19;19998;-73
2024/01/26 00:59:46;;;;;;;3.17;1.70;;;13.90;94.80;;;;;;4592587;19;20029;-73
2024/01/26 01:15:48;;;;;;;4.80;2.60;;;13.90;94.80;;;;;;4588557;19;20041;-72
2024/01/26 01:17:24;;;;;;;6.63;3.00;;;13.80;95.00;;;;;;4592042;19;20029;-73
2024/01/26 01:18:59;;;;;;;6.90;3.50;;;13.80;95.10;;;;;;4592483;19;20433;-72
2024/01/26 01:20:34;;;;;;;7.30;3.30;;;13.80;95.40;;;;;;4592115;19;20009;-73
2024/01/26 01:22:09;;;;;;;6.27;3.57;;;13.80;95.60;;;;;;4591392;19;20007;-73
2024/01/26 01:23:43;;;;;;;7.83;3.27;;;13.80;95.60;;;;;;4592138;19;20009;-73
2024/01/26 01:25:17;;;;;;;5.07;2.80;;;13.80;95.60;;;;;;4591519;19;20424;-72
2024/01/26 01:26:52;;;;;;;4.20;1.93;;;13.80;95.60;;;;;;4592330;19;20028;-73
2024/01/26 01:28:27;;;;;;;5.37;2.30;;;13.80;95.50;;;;;;4592303;19;20031;-73
2024/01/26 01:30:01;;;;;;;4.03;2.00;;;13.80;95.60;;;;;;4591970;19;20002;-73
2024/01/26 01:31:37;;;;;;;4.97;3.03;;;13.80;95.50;;;;;;4592039;19;20002;-73
2024/01/26 01:33:11;;;;;;;4.10;2.43;;;13.90;95.50;;;;;;4591981;19;20312;-73
2024/01/26 01:34:45;;;;;;;4.30;1.90;;;13.90;95.50;;;;;;4591719;19;20092;-73
2024/01/26 01:36:21;;;;;;;4.10;2.80;;;13.90;95.40;;;;;;4593063;19;20028;-72
2024/01/26 01:37:54;;;;;;;3.03;1.60;;;13.90;95.40;;;;;;4596569;19;20007;-73
2024/01/26 01:39:28;;;;;;;3.17;2.00;;;13.90;95.50;;;;;;4596580;19;20003;-73
2024/01/26 01:41:03;;;;;;;3.23;1.63;;;13.90;95.70;;;;;;4596621;19;19999;-73
2024/01/26 01:42:37;;;;;;;4.10;2.03;;;13.90;95.50;;;;;;4594625;19;20009;-73
2024/01/26 01:44:11;;;;;;;3.10;1.30;;;13.90;95.50;;;;;;4596592;19;20007;-73
2024/01/26 01:45:48;;;;;;;2.90;1.20;;;13.90;95.40;;;;;;4594675;19;20354;-73
2024/01/26 01:47:22;;;;;;;3.43;2.20;;;13.90;95.40;;;;;;4596740;19;20003;-73
2024/01/26 01:48:57;;;;;;;4.63;2.60;;;13.90;95.40;;;;;;4596399;19;20003;-73
2024/01/26 01:50:33;;;;;;;3.37;2.10;;;13.90;95.40;;;;;;4596893;19;20019;-73
2024/01/26 01:52:13;;;;;;;5.80;4.20;;;13.90;95.40;;;;;;4596336;19;20007;-73
2024/01/26 01:53:49;;;;;;;5.70;4.93;;;13.90;95.40;;;;;;4595083;19;20374;-73
2024/01/26 01:55:25;;;;;;;3.90;1.83;;;13.90;95.40;;;;;;4594747;19;20018;-73
2024/01/26 01:57:02;;;;;;;3.93;2.70;;;13.90;95.50;;;;;;4595172;19;20006;-73
2024/01/26 01:58:43;;;;;;;4.43;2.50;;;13.90;95.40;;;;;;4596257;19;20006;-73
2024/01/26 02:00:20;;;;;;;3.03;1.20;;;13.90;95.30;;;;;;4596290;19;20433;-73
2024/01/26 02:01:54;;;;;;;1.57;1.17;;;13.90;95.20;;;;;;4595489;19;19998;-73
2024/01/26 02:03:29;;;;;;;3.47;1.70;;;13.90;95.30;;;;;;4596401;19;20002;-73
2024/01/26 02:05:04;;;;;;;3.27;1.70;;;13.90;95.30;;;;;;4595413;19;20313;-73
2024/01/26 02:06:38;;;;;;;3.10;1.90;;;13.90;95.30;;;;;;4596353;19;19999;-73
2024/01/26 02:08:13;;;;;;;2.65;1.65;;;13.90;95.20;;;;;;4596248;19;20015;-73
2024/01/26 02:09:49;;;;;;;2.47;1.27;;;13.90;95.10;;;;;;4596306;19;20002;-73
2024/01/26 02:11:23;;;;;;;3.28;1.50;;;13.90;95.10;;;;;;4596229;19;20424;-73
2024/01/26 02:12:59;;;;;;;2.03;1.00;;;13.90;95.10;;;;;;4596214;19;20062;-73
2024/01/26 02:14:35;;;;;;;2.00;1.10;;;13.90;95.10;;;;;;4595441;19;20006;-73
2024/01/26 02:16:09;;;;;;;2.87;1.37;;;13.90;95.00;;;;;;4596277;19;20010;-73
2024/01/26 02:17:44;;;;;;;2.07;1.43;;;13.90;95.00;;;;;;4596060;19;20021;-73
2024/01/26 02:19:19;;;;;;;2.23;1.10;;;13.90;95.00;;;;;;4596155;19;20002;-73
2024/01/26 02:20:55;;;;;;;2.33;1.20;;;13.90;95.00;;;;;;4595827;19;20077;-73
2024/01/26 02:22:28;;;;;;;2.40;1.80;;;13.90;95.00;;;;;;4594268;19;20425;-73
2024/01/26 02:24:05;;;;;;;3.53;1.87;;;13.90;95.00;;;;;;4595720;19;20029;-73
2024/01/26 02:25:40;;;;;;;3.00;1.77;;;13.90;95.00;;;;;;4594082;19;20002;-73
2024/01/26 02:27:15;;;;;;;1.97;1.30;;;13.90;95.00;;;;;;4595668;19;20010;-73
2024/01/26 02:28:50;;;;;;;4.15;1.92;;;13.90;94.90;;;;;;4595899;19;20453;-73
2024/01/26 02:30:26;;;;;;;4.17;2.07;;;13.90;94.80;;;;;;4594232;19;20082;-73
2024/01/26 02:31:59;;;;;;;2.60;1.70;;;13.90;94.70;;;;;;4595504;19;20013;-73
2024/01/26 02:33:35;;;;;;;3.50;1.43;;;13.80;94.70;;;;;;4595496;19;20019;-73
2024/01/26 02:35:09;;;;;;;1.93;1.10;;;13.80;94.60;;;;;;4594454;19;20002;-73
2024/01/26 02:36:44;;;;;;;2.97;1.10;;;13.80;94.50;;;;;;4595387;19;20432;-73
2024/01/26 02:38:19;;;;;;;4.53;2.07;;;13.80;94.50;;;;;;4595589;19;20006;-73
2024/01/26 02:39:53;;;;;;;3.07;1.30;;;13.80;94.50;;;;;;4595457;19;19994;-73
2024/01/26 02:41:29;;;;;;;5.53;2.40;;;13.90;94.60;;;;;;4595279;19;20013;-73
2024/01/26 02:43:05;;;;;;;6.63;3.93;;;13.80;94.50;;;;;;4595639;19;20018;-73
2024/01/26 02:44:39;;;;;;;3.53;2.47;;;13.80;94.50;;;;;;4594845;19;20002;-73
2024/01/26 02:46:13;;;;;;;4.73;3.20;;;13.80;94.40;;;;;;4595482;19;20002;-73
2024/01/26 02:47:49;;;;;;;2.80;1.60;;;13.80;94.40;;;;;;4594899;19;20425;-73
2024/01/26 02:49:23;;;;;;;3.10;1.50;;;13.80;94.30;;;;;;4595452;19;20025;-73
2024/01/26 02:50:59;;;;;;;1.40;1.00;;;13.80;94.30;;;;;;4595429;19;20032;-73
2024/01/26 02:52:34;;;;;;;2.00;1.30;;;13.80;94.30;;;;;;4595218;19;20003;-73
2024/01/26 02:54:07;;;;;;;2.67;1.57;;;13.80;94.40;;;;;;4595109;19;20002;-72
2024/01/26 02:55:42;;;;;;;2.70;1.40;;;13.80;94.20;;;;;;4593531;19;20006;-73
2024/01/26 02:57:18;;;;;;;4.73;1.60;;;13.80;94.00;;;;;;4593775;19;20074;-73
2024/01/26 02:58:52;;;;;;;4.53;2.03;;;13.80;93.70;;;;;;4594602;19;20029;-73
2024/01/26 03:00:25;;;;;;;3.00;1.73;;;13.70;93.50;;;;;;4595263;19;20314;-73
2024/01/26 03:02:01;;;;;;;4.83;3.50;;;13.70;93.50;;;;;;4594161;19;20321;-73
2024/01/26 03:03:36;;;;;;;5.70;3.90;;;13.70;93.70;;;;;;4594960;19;20412;-73
2024/01/26 03:05:10;;;;;;;4.33;3.10;;;13.80;93.70;;;;;;4594146;19;20010;-72
2024/01/26 03:06:45;;;;;;;3.63;2.20;;;13.80;93.70;;;;;;4593890;19;20013;-73
2024/01/26 03:08:19;;;;;;;5.67;3.60;;;13.80;93.80;;;;;;4594500;19;20007;-73
2024/01/26 03:09:53;;;;;;;3.60;2.20;;;13.80;93.70;;;;;;4595066;19;19999;-73
2024/01/26 03:11:38;;;;;;;3.47;1.77;;;13.80;93.80;;;;;;4595035;19;20054;-73
2024/01/26 03:13:13;;;;;;;3.23;1.97;;;13.80;93.90;;;;;;4593461;19;20020;-73
2024/01/26 03:14:46;;;;;;;4.93;2.33;;;13.80;93.90;;;;;;4593442;19;20437;-73
2024/01/26 03:16:23;;;;;;;4.40;2.43;;;13.90;94.00;;;;;;4594644;19;20429;-73
2024/01/26 03:17:58;;;;;;;3.50;1.63;;;13.80;94.00;;;;;;4594640;19;20002;-73
2024/01/26 03:19:35;;;;;;;2.10;1.20;;;13.90;94.10;;;;;;4594576;19;20002;-73
2024/01/26 03:21:11;;;;;;;2.17;1.20;;;13.80;94.00;;;;;;4593561;19;20014;-73
2024/01/26 03:22:46;;;;;;;3.23;1.40;;;13.90;93.90;;;;;;4594438;19;20006;-73
2024/01/26 03:24:19;;;;;;;3.97;2.00;;;13.90;94.00;;;;;;4594334;19;20328;-73
2024/01/26 03:25:55;;;;;;;4.90;1.60;;;13.90;94.00;;;;;;4594860;19;20006;-73
2024/01/26 03:27:29;;;;;;;3.30;2.33;;;13.90;93.90;;;;;;4593109;19;20005;-73
2024/01/26 03:29:05;;;;;;;4.00;1.90;;;13.90;94.00;;;;;;4594039;19;20310;-73
2024/01/26 03:30:43;;;;;;;3.07;1.60;;;13.90;93.80;;;;;;4594731;19;20032;-73
2024/01/26 03:32:17;;;;;;;1.90;1.13;;;13.90;93.90;;;;;;4594696;19;20325;-73
2024/01/26 03:33:51;;;;;;;3.67;2.20;;;13.90;93.90;;;;;;4594583;19;20002;-73
2024/01/26 03:35:27;;;;;;;3.00;1.63;;;13.90;94.10;;;;;;4591833;19;20047;-73
2024/01/26 03:37:01;;;;;;;2.43;1.10;;;13.90;93.90;;;;;;4593884;19;20331;-73
2024/01/26 03:38:36;;;;;;;1.73;0.83;;;13.90;93.90;;;;;;4594175;19;20009;-73
2024/01/26 03:40:12;;;;;;;2.47;1.07;;;13.80;93.80;;;;;;4594225;19;20030;-73
2024/01/26 03:41:46;;;;;;;1.57;0.90;;;13.90;93.80;;;;;;4593880;19;20010;-73
2024/01/26 03:43:20;;;;;;;2.17;1.17;;;13.90;93.90;;;;;;4594095;19;20002;-73
2024/01/26 03:44:55;;;;;;;2.17;0.87;;;13.90;93.90;;;;;;4593453;19;20006;-73
2024/01/26 03:46:30;;;;;;;1.30;0.93;;;13.90;93.90;;;;;;4594024;19;19998;-73
2024/01/26 03:48:05;;;;;;;2.07;0.97;;;13.80;93.70;;;;;;4594302;19;20022;-73
2024/01/26 03:49:45;;;;;;;1.53;0.90;;;13.90;93.80;;;;;;4594326;19;20013;-73
2024/01/26 03:51:19;;;;;;;2.03;1.10;;;13.90;93.80;;;;;;4594105;19;20010;-73
2024/01/26 03:52:53;;;;;;;1.83;0.90;;;13.90;93.70;;;;;;4594128;19;20075;-73
2024/01/26 03:54:30;;;;;;;2.87;1.10;;;13.90;93.80;;;;;;4593647;19;20023;-73
2024/01/26 03:56:04;;;;;;;3.40;1.80;;;13.90;93.80;;;;;;4594071;19;20071;-73
2024/01/26 03:57:37;;;;;;;3.53;1.77;;;13.90;93.80;;;;;;4594074;19;20017;-73
2024/01/26 03:59:13;;;;;;;5.20;2.63;;;13.90;93.80;;;;;;4592244;19;20003;-73
2024/01/26 04:00:48;;;;;;;6.27;3.43;;;13.90;93.80;;;;;;4592643;19;20003;-73
2024/01/26 04:02:22;;;;;;;12.50;5.57;;;13.90;93.80;;;;;;4592632;19;20082;-73
2024/01/26 04:03:57;;;;;;;12.13;6.00;;;13.80;93.80;;;;;;4593981;19;20002;-73
2024/01/26 04:05:32;;;;;;;11.30;6.80;;;13.90;93.70;;;;;;4591165;19;20003;-73
2024/01/26 04:07:06;;;;;;;13.30;9.27;;;13.90;93.80;;;;;;4593537;19;20005;-73
2024/01/26 04:08:41;;;;;;;6.77;4.20;;;13.90;93.90;;;;;;4593856;19;20018;-73
2024/01/26 04:10:15;;;;;;;7.37;5.47;;;13.90;93.60;;;;;;4593836;19;20002;-73
2024/01/26 04:11:50;;;;;;;7.13;5.13;;;13.90;93.60;;;;;;4593480;19;20005;-73
2024/01/26 04:13:25;;;;;;;5.17;3.20;;;13.90;93.60;;;;;;4592509;19;20082;-73
2024/01/26 04:15:00;;;;;;;2.60;1.70;;;13.90;93.60;;;;;;4592099;19;20011;-73
2024/01/26 04:16:35;;;;;;;4.30;2.20;;;13.90;93.50;;;;;;4593763;19;20071;-73
2024/01/26 04:18:11;;;;;;;5.97;2.80;;;13.90;93.50;;;;;;4592360;19;20013;-73
2024/01/26 04:19:46;;;;;;;7.20;3.30;;;13.90;93.50;;;;;;4593057;19;20009;-73
2024/01/26 04:21:20;;;;;;;6.57;2.90;;;13.90;93.40;;;;;;4593171;19;20448;-73
2024/01/26 04:22:56;;;;;;;9.17;4.83;;;13.90;93.20;;;;;;4592280;19;20298;-73
2024/01/26 04:24:30;;;;;;;11.50;5.33;;;13.90;93.20;;;;;;4592575;19;20315;-73
2024/01/26 04:26:05;;;;;;;9.27;4.37;;;13.90;93.20;;;;;;4593484;19;20058;-73
2024/01/26 04:27:40;;;;;;;8.63;4.67;;;13.90;93.20;;;;;;4592137;19;20442;-74
2024/01/26 04:29:14;;;;;;;10.57;5.10;;;13.90;93.20;;;;;;4592821;19;19998;-73
2024/01/26 04:30:49;;;;;;;5.13;2.50;;;13.90;93.30;;;;;;4593124;19;20014;-73
2024/01/26 04:32:24;;;;;;;6.83;3.50;;;13.90;93.30;;;;;;4593459;19;20443;-73
2024/01/26 04:33:59;;;;;;;5.37;2.70;;;13.90;93.30;;;;;;4593335;19;20005;-73
2024/01/26 04:35:32;;;;;;;3.43;1.70;;;13.90;93.30;;;;;;4591994;19;20002;-73
2024/01/26 04:37:08;;;;;;;3.43;1.57;;;13.90;93.30;;;;;;4593255;19;20417;-73
2024/01/26 04:38:42;;;;;;;1.73;1.10;;;13.90;93.20;;;;;;4592951;19;20002;-73
2024/01/26 04:40:16;;;;;;;2.10;1.00;;;13.90;93.10;;;;;;4591862;19;19994;-74
2024/01/26 04:41:51;;;;;;;2.20;1.10;;;13.90;93.10;;;;;;4592345;19;19998;-73
2024/01/26 04:43:25;;;;;;;3.30;1.67;;;13.90;93.10;;;;;;4592813;19;20006;-73
2024/01/26 04:45:00;;;;;;;4.80;2.30;;;13.90;93.10;;;;;;4591124;19;20007;-73
2024/01/26 04:46:36;;;;;;;4.77;2.53;;;13.80;93.20;;;;;;4592853;19;20290;-73
2024/01/26 04:48:10;;;;;;;5.47;3.50;;;13.80;93.20;;;;;;4593070;19;20074;-73
2024/01/26 04:49:44;;;;;;;7.03;4.47;;;13.90;93.50;;;;;;4592726;19;20425;-73
2024/01/26 04:51:19;;;;;;;9.57;6.57;;;13.90;93.40;;;;;;4593019;19;20021;-73
2024/01/26 04:52:54;;;;;;;10.27;6.30;;;14.00;93.40;;;;;;4592910;19;20006;-73
2024/01/26 04:54:28;;;;;;;9.40;5.50;;;14.20;93.40;;;;;;4592644;19;20003;-73
2024/01/26 04:56:04;;;;;;;10.47;4.27;;;14.20;93.30;;;;;;4592976;19;20008;-73
2024/01/26 04:57:39;;;;;;;5.57;2.90;;;14.30;93.10;;;;;;4592571;19;20006;-72
2024/01/26 04:59:14;;;;;;;7.47;4.07;;;14.40;93.10;;;;;;4592758;19;20024;-72
2024/01/26 05:00:50;;;;;;;6.80;3.87;;;14.40;93.10;;;;;;4592799;19;20421;-72
2024/01/26 05:02:23;;;;;;;7.27;4.03;;;14.50;93.30;;;;;;4591953;19;20006;-72
2024/01/26 05:03:57;;;;;;;5.83;3.17;;;14.50;93.20;;;;;;4592732;19;20320;-72
2024/01/26 05:05:33;;;;;;;4.07;2.03;;;14.60;93.10;;;;;;4591455;19;20080;-72
2024/01/26 05:07:07;;;;;;;2.80;1.43;;;14.60;93.00;;;;;;4592690;19;20002;-72
2024/01/26 05:08:41;;;;;;;1.97;1.30;;;14.60;92.90;;;;;;4592732;19;20380;-73
2024/01/26 05:10:17;;;;;;;2.63;1.50;;;14.70;92.90;;;;;;4592064;19;20013;-72
2024/01/26 05:11:51;;;;;;;2.57;1.10;;;14.70;92.90;;;;;;4590847;19;20013;-72
2024/01/26 05:13:25;;;;;;;2.00;1.03;;;14.70;92.80;;;;;;4592298;19;20062;-73
2024/01/26 05:15:00;;;;;;;2.83;1.30;;;14.70;93.00;;;;;;4591393;19;20010;-73
2024/01/26 05:16:34;;;;;;;3.27;1.60;;;14.70;92.80;;;;;;4592046;19;20006;-73
2024/01/26 05:18:08;;;;;;;3.10;1.33;;;14.70;92.70;;;;;;4592221;19;20002;-72
2024/01/26 05:19:44;;;;;;;1.83;1.30;;;14.80;93.30;;;;;;4592207;19;20021;-74
2024/01/26 05:21:18;;;;;;;1.80;1.10;;;14.90;93.00;;;;;;4592158;19;20013;-72
2024/01/26 05:22:52;;;;;;;2.20;1.30;;;14.80;92.70;;;;;;4591961;19;20006;-72
2024/01/26 05:24:29;;;;;;;2.77;1.73;;;14.70;92.60;;;;;;4591827;19;20348;-73
2024/01/26 05:26:04;;;;;;;4.87;2.47;;;14.60;92.60;;;;;;4591970;19;20031;-73
2024/01/26 05:27:40;;;;;;;3.87;1.97;;;14.60;92.70;;;;;;4591958;19;20006;-73
2024/01/26 05:29:16;;;;;;;3.17;1.90;;;14.60;92.80;;;;;;4592103;19;20006;-72
2024/01/26 05:30:50;;;;;;;5.93;2.77;;;14.70;92.80;;;;;;4591981;19;20054;-72
2024/01/26 05:32:24;;;;;;;4.47;2.43;;;14.70;92.90;;;;;;4592022;19;19998;-73
2024/01/26 05:34:00;;;;;;;6.70;3.03;;;14.70;92.80;;;;;;4592013;19;20025;-72
2024/01/26 05:35:33;;;;;;;12.35;6.63;;;14.60;92.70;;;;;;4589226;19;20017;-72
2024/01/26 05:37:08;;;;;;;9.43;5.03;;;14.60;92.80;;;;;;4591826;19;20020;-72
2024/01/26 05:38:43;;;;;;;10.50;5.33;;;14.50;92.80;;;;;;4591886;19;19999;-72
2024/01/26 05:40:18;;;;;;;17.98;9.27;;;14.50;92.80;;;;;;4592126;19;19995;-73
2024/01/26 05:41:52;;;;;;;17.33;8.17;;;14.50;92.90;;;;;;4591341;19;20078;-73
2024/01/26 05:43:27;;;;;;;12.30;6.93;;;14.40;93.00;;;;;;4592070;19;20078;-73
2024/01/26 05:45:03;;;;;;;10.67;5.90;;;14.40;93.10;;;;;;4591074;19;20006;-73
2024/01/26 05:46:36;;;;;;;13.23;6.47;;;14.30;93.00;;;;;;4590440;19;20021;-73
2024/01/26 05:48:12;;;;;;;7.40;4.27;;;14.30;93.20;;;;;;4591356;19;20425;-73
2024/01/26 05:49:46;;;;;;;7.97;4.27;;;14.30;93.40;;;;;;4591103;19;20021;-73
2024/01/26 05:51:20;;;;;;;16.20;6.80;;;14.20;93.10;;;;;;4591891;19;20058;-73
2024/01/26 05:52:55;;;;;;;9.73;4.90;;;14.20;93.10;;;;;;4590598;19;20022;-73
2024/01/26 05:54:29;;;;;;;10.40;4.70;;;14.10;93.10;;;;;;4588572;19;20002;-74
2024/01/26 05:56:04;;;;;;;10.60;4.77;;;14.20;93.20;;;;;;4590260;19;20031;-73
2024/01/26 05:57:39;;;;;;;6.43;3.20;;;14.20;93.40;;;;;;4590441;19;20009;-73
2024/01/26 05:59:15;;;;;;;3.77;2.50;;;14.20;93.40;;;;;;4590152;19;19999;-72
2024/01/26 06:00:49;;;;;;;15.73;8.20;;;14.30;93.50;;;;;;4590440;19;20421;-73
2024/01/26 06:02:25;;;;;;;8.60;4.47;;;14.40;93.40;;;;;;4589403;19;20021;-73
2024/01/26 06:03:59;;;;;;;3.63;2.17;;;14.50;93.30;;;;;;4590352;19;20006;-73
2024/01/26 06:05:34;;;;;;;6.53;3.27;;;14.60;93.00;;;;;;4588656;19;20074;-73
2024/01/26 06:07:10;;;;;;;9.10;4.37;;;14.70;93.00;;;;;;4590609;19;20421;-73
2024/01/26 06:08:44;;;;;;;8.53;5.13;;;14.80;92.90;;;;;;4591407;19;20007;-72
2024/01/26 06:10:18;;;;;;;16.13;10.73;;;15.00;92.90;;;;;;4591631;19;20003;-73
2024/01/26 06:11:53;;;;;;;8.63;4.40;;;15.00;92.80;;;;;;4591608;19;20322;-73
2024/01/26 06:13:27;;;;;;;10.53;6.47;;;15.10;92.70;;;;;;4591575;19;20070;-73
2024/01/26 06:15:01;;;;;;;7.53;5.00;;;15.20;92.60;;;;;;4589966;19;20028;-73
2024/01/26 06:16:37;;;;;;;10.90;6.93;;;15.20;92.60;;;;;;4591240;19;20007;-73
2024/01/26 06:18:13;;;;;;;13.83;8.90;;;15.30;92.50;;;;;;4591216;19;20017;-73
2024/01/26 06:19:47;;;;;;;8.97;5.40;;;15.40;92.50;;;;;;4591233;19;20006;-73
2024/01/26 06:21:22;;;;;;;10.20;6.23;;;15.40;92.40;;;;;;4591512;19;20007;-73
2024/01/26 06:22:59;;;;;;;10.10;6.03;;;15.50;92.40;;;;;;4594021;19;20095;-72
2024/01/26 06:24:34;;;;;;;8.70;5.40;;;15.50;92.40;;;;;;4595187;19;20006;-73
2024/01/26 06:26:09;;;;;;;7.60;4.88;;;15.60;92.40;;;;;;4595736;19;20298;-73
2024/01/26 06:27:43;;;;;;;7.60;4.73;;;15.60;92.40;;;;;;4595882;19;20013;-72
2024/01/26 06:29:19;;;;;;;4.37;2.83;;;15.60;92.30;;;;;;4595626;19;20002;-73
2024/01/26 06:30:55;;;;;;;6.97;4.30;;;15.60;92.20;;;;;;4595867;19;20119;-73
2024/01/26 06:32:29;;;;;;;10.53;5.53;;;15.70;92.30;;;;;;4595528;19;20003;-73
2024/01/26 06:34:04;;;;;;;6.93;4.37;;;15.70;92.10;;;;;;4594152;19;20003;-73
2024/01/26 06:35:39;;;;;;;6.47;3.78;;;15.70;92.10;;;;;;4593342;19;20017;-73
2024/01/26 06:37:15;;;;;;;9.80;5.50;;;15.70;92.10;;;;;;4595740;19;20081;-73
2024/01/26 06:38:48;;;;;;;16.80;10.00;;;15.70;92.10;;;;;;4594060;19;20073;-73
2024/01/26 06:40:24;;;;;;;22.07;11.83;;;15.70;92.10;;;;;;4595299;19;20413;-73
2024/01/26 06:42:03;;;;;;;24.67;12.13;;;15.70;92.10;;;;;;4592782;19;20033;-73
2024/01/26 06:44:17;;;;;;;12.90;6.57;;;15.70;92.10;;;;;;4593846;19;20464;-73
2024/01/26 06:46:31;;;;;;;18.93;9.77;;;15.60;92.20;;;;;;4593310;19;20015;-73
2024/01/26 06:48:20;;;;;;;30.17;15.13;;;15.60;92.10;;;;;;4592015;19;20011;-73
2024/01/26 06:50:09;;;;;;;13.60;6.53;;;15.60;92.20;;;;;;4595193;19;20025;-72
2024/01/26 06:51:47;;;;;;;5.90;3.20;;;15.50;92.30;;;;;;4593657;19;20018;-72
2024/01/26 06:53:36;;;;;;;4.70;2.73;;;15.50;92.30;;;;;;4594860;19;20011;-72
2024/01/26 06:55:11;;;;;;;5.57;3.28;;;15.40;92.40;;;;;;4594062;19;20011;-73
2024/01/26 06:56:45;;;;;;;11.13;7.80;;;15.40;92.40;;;;;;4594987;19;19995;-73
2024/01/26 06:58:20;;;;;;;7.78;4.75;;;15.30;92.50;;;;;;4595135;19;20006;-72
2024/01/26 07:00:12;;;;;;;4.77;2.80;;;15.30;92.60;;;;;;4594919;19;20006;-72
2024/01/26 07:02:06;;;;;;;2.70;1.50;;;15.20;92.70;;;;;;4593013;19;20311;-73
2024/01/26 07:04:44;;;;;;;3.83;2.30;;;15.20;92.70;;;;;;4594413;19;20073;-73
2024/01/26 07:06:29;;;;;;;3.93;2.53;;;15.10;92.80;;;;;;4593668;19;20069;-72
2024/01/26 07:08:06;;;;;;;3.73;2.37;;;15.00;92.80;;;;;;4595017;19;20006;-72
2024/01/26 07:09:40;;;;;;;5.97;4.20;;;15.00;93.00;;;;;;4594794;19;20077;-72
2024/01/26 07:11:14;;;;;;;6.43;4.65;;;15.00;93.00;;;;;;4594848;19;20014;-72
2024/01/26 07:12:49;;;;;;;6.73;5.70;;;14.90;93.00;;;;;;4595023;19;20026;-72
2024/01/26 07:14:23;;;;;;;9.10;8.20;;;14.90;93.20;;;;;;4594396;19;20369;-73
2024/01/26 07:15:57;;;;;;;11.70;9.97;;;14.90;93.10;;;;;;4594449;19;20025;-72
2024/01/26 07:17:32;;;;;;;12.33;11.03;;;14.90;93.20;;;;;;4594338;19;20023;-72
2024/01/26 07:19:06;;;;;;;14.87;12.47;;;14.80;93.20;;;;;;4594209;19;20346;-72
2024/01/26 07:20:40;;;;;;;17.10;12.88;;;14.80;93.20;;;;;;4593079;19;20019;-72
2024/01/26 07:22:16;;;;;;;20.63;13.50;;;14.70;93.20;;;;;;4593887;19;20007;-72
2024/01/26 07:23:50;;;;;;;13.83;9.80;;;14.70;93.40;;;;;;4594473;19;20062;-73
2024/01/26 07:25:25;;;;;;;12.38;8.23;;;14.70;93.30;;;;;;4592997;19;20019;-73
2024/01/26 07:27:01;;;;;;;13.70;8.50;;;14.70;93.30;;;;;;4593681;19;20002;-72
2024/01/26 07:28:35;;;;;;;10.03;7.70;;;14.60;93.40;;;;;;4594426;19;19999;-72
2024/01/26 07:30:09;;;;;;;10.43;7.30;;;14.60;93.40;;;;;;4594367;19;20003;-71
2024/01/26 07:31:46;;;;;;;9.67;7.07;;;14.50;93.40;;;;;;4593436;19;20062;-70
2024/01/26 07:33:20;;;;;;;8.70;5.93;;;14.60;93.60;;;;;;4594870;19;20002;-72
2024/01/26 07:34:55;;;;;;;9.03;6.70;;;14.50;93.60;;;;;;4591085;19;20476;-70
2024/01/26 07:36:31;;;;;;;8.60;6.50;;;14.50;93.60;;;;;;4594284;19;20433;-72
2024/01/26 07:38:05;;;;;;;10.47;6.23;;;14.50;93.60;;;;;;4594820;19;20006;-72
2024/01/26 07:39:39;;;;;;;11.50;7.90;;;14.40;93.60;;;;;;4594267;19;20044;-71
2024/01/26 07:41:15;;;;;;;10.57;7.90;;;14.40;93.70;;;;;;4592842;19;20082;-71
2024/01/26 07:42:50;;;;;;;11.57;7.60;;;14.40;93.70;;;;;;4592883;19;20003;-71
2024/01/26 07:44:23;;;;;;;14.97;9.33;;;14.40;93.80;;;;;;4594201;19;19998;-70
2024/01/26 07:45:58;;;;;;;12.63;8.87;;;14.40;93.80;;;;;;4593341;19;20002;-70
2024/01/26 07:47:38;;;;;;;21.73;10.13;;;14.30;93.90;;;;;;4593738;19;20090;-70
2024/01/26 07:49:13;;;;;;;16.03;9.90;;;14.30;94.00;;;;;;4593922;19;20006;-69
2024/01/26 07:50:48;;;;;;;22.70;14.40;;;14.30;94.00;;;;;;4594060;19;20093;-70
2024/01/26 07:52:23;;;;;;;22.60;14.90;;;14.30;94.10;;;;;;4592653;19;20077;-70
2024/01/26 07:53:58;;;;;;;24.90;16.20;;;14.30;94.10;;;;;;4593619;19;19995;-70
2024/01/26 07:55:33;;;;;;;28.57;18.50;;;14.20;94.00;;;;;;4592149;19;20165;-69
2024/01/26 07:57:10;;;;;;;25.53;16.80;;;14.20;94.00;;;;;;4593897;19;20002;-70
2024/01/26 07:58:44;;;;;;;22.43;14.67;;;14.20;94.10;;;;;;4593796;19;20356;-70
2024/01/26 08:00:19;;;;;;;20.77;13.73;;;14.20;94.10;;;;;;4593834;19;20011;-72
2024/01/26 08:01:53;;;;;;;24.97;15.33;;;14.20;94.20;;;;;;4594183;19;19999;-71
2024/01/26 08:03:28;;;;;;;20.33;14.03;;;14.10;94.30;;;;;;4593941;19;20073;-72
2024/01/26 08:05:04;;;;;;;20.57;13.53;;;14.10;94.40;;;;;;4591572;19;20010;-70
2024/01/26 08:06:38;;;;;;;21.10;13.80;;;14.10;94.40;;;;;;4593011;19;20013;-70
2024/01/26 08:08:11;;;;;;;20.03;13.83;;;14.10;94.30;;;;;;4592292;19;20318;-70
2024/01/26 08:09:46;;;;;;;18.43;11.63;;;14.10;94.40;;;;;;4592300;19;20006;-72
2024/01/26 08:11:20;;;;;;;28.23;19.30;;;14.10;94.40;;;;;;4593195;19;20002;-71
2024/01/26 08:12:55;;;;;;;20.83;15.63;;;14.10;94.50;;;;;;4593247;19;20009;-70
2024/01/26 08:14:30;;;;;;;18.23;14.03;;;14.20;96.90;;;;;;4592736;19;20301;-70
2024/01/26 08:16:05;;;;;;;17.83;14.90;;;14.30;94.50;;;;;;4593530;19;20070;-70
2024/01/26 08:17:40;;;;;;;20.47;13.33;;;14.30;94.40;;;;;;4593199;19;20002;-70
2024/01/26 08:19:15;;;;;;;16.80;11.90;;;14.30;94.50;;;;;;4593196;19;20006;-70
2024/01/26 08:20:49;;;;;;;23.47;14.60;;;14.30;94.50;;;;;;4593440;19;20473;-70
2024/01/26 08:22:23;;;;;;;30.30;18.70;;;14.30;94.60;;;;;;4592609;19;20005;-71
2024/01/26 08:26:40;;;;;;;26.27;15.80;;;14.40;94.60;;;;;;4591713;19;19995;-70
2024/01/26 08:28:16;;;;;;;17.93;11.70;;;14.30;94.60;;;;;;4591713;19;20087;-71
2024/01/26 08:29:50;;;;;;;13.57;8.97;;;14.30;94.70;;;;;;4591850;19;20035;-70
2024/01/26 08:31:24;;;;;;;12.30;9.30;;;14.30;94.60;;;;;;4592580;19;20002;-70
2024/01/26 08:33:54;;;;;;;13.87;10.17;;;14.30;94.70;;;;;;4592855;19;20062;-69